Time;durP1;ratioP1;P1;durP2;ratioP2;P2;SDS_P1;SDS_P2;PMS_P1;PMS_P2;Temp;Humidity;BMP_temperature;BMP_pressure;BME280_temperature;BME280_humidity;BME280_pressure;Samples;Min_cycle;Max_cycle;Signal;HPM_P1;HPM_P2
2023/10/27 00:00:45;;;;;;;14.15;8.30;;;;;;;10.37;100.00;99549.97;7374135;19;19926;-70
2023/10/27 00:03:16;;;;;;;14.48;8.05;;;;;;;10.37;100.00;99550.78;7367090;19;19953;-70
2023/10/27 00:05:45;;;;;;;14.32;8.57;;;;;;;10.35;100.00;99543.97;7396867;19;19968;-70
2023/10/27 00:08:14;;;;;;;14.73;8.27;;;;;;;10.34;100.00;99545.81;7394576;19;19918;-70
2023/10/27 00:10:42;;;;;;;13.80;9.00;;;;;;;10.36;100.00;99546.44;7395591;19;19952;-70
2023/10/27 00:13:11;;;;;;;12.18;7.72;;;;;;;10.37;100.00;99537.31;7395839;19;20522;-70
2023/10/27 00:15:39;;;;;;;13.02;7.75;;;;;;;10.35;100.00;99525.97;7396198;19;19922;-70
2023/10/27 00:18:08;;;;;;;11.52;7.97;;;;;;;10.33;100.00;99522.63;7397006;19;19911;-69
2023/10/27 00:20:39;;;;;;;11.68;8.73;;;;;;;10.32;100.00;99512.88;7393775;19;19935;-69
2023/10/27 00:23:08;;;;;;;12.75;7.38;;;;;;;10.30;100.00;99508.75;7393005;19;19952;-69
2023/10/27 00:25:36;;;;;;;10.90;7.45;;;;;;;10.29;100.00;99504.41;7397941;19;19919;-69
2023/10/27 00:28:05;;;;;;;12.70;7.57;;;;;;;10.27;100.00;99501.91;7394414;19;19918;-69
2023/10/27 00:30:33;;;;;;;11.27;7.70;;;;;;;10.30;100.00;99506.06;7394776;19;19943;-69
2023/10/27 00:33:02;;;;;;;12.65;7.07;;;;;;;10.29;100.00;99509.78;7393433;19;20348;-69
2023/10/27 00:35:30;;;;;;;12.00;7.68;;;;;;;10.26;100.00;99515.59;7397062;19;19959;-69
2023/10/27 00:38:01;;;;;;;10.73;8.02;;;;;;;10.26;100.00;99510.22;7394049;19;19954;-70
2023/10/27 00:40:30;;;;;;;10.15;7.15;;;;;;;10.26;100.00;99511.06;7395142;19;19922;-69
2023/10/27 00:42:59;;;;;;;9.95;7.07;;;;;;;10.28;100.00;99508.13;7394626;19;20341;-69
2023/10/27 00:45:28;;;;;;;10.02;7.95;;;;;;;10.26;100.00;99507.53;7394348;19;19919;-69
2023/10/27 00:47:58;;;;;;;9.88;6.93;;;;;;;10.24;100.00;99509.59;7397178;19;19926;-69
2023/10/27 00:50:27;;;;;;;12.20;6.93;;;;;;;10.23;100.00;99492.59;7396081;19;20294;-69
2023/10/27 00:52:56;;;;;;;9.77;7.35;;;;;;;10.24;100.00;99485.38;7393903;19;19926;-69
2023/10/27 00:55:27;;;;;;;11.63;7.07;;;;;;;10.24;100.00;99479.97;7396415;19;20345;-70
2023/10/27 00:57:58;;;;;;;10.68;7.38;;;;;;;10.24;100.00;99482.66;7395114;19;19934;-69
2023/10/27 01:00:27;;;;;;;10.23;7.18;;;;;;;10.21;100.00;99485.78;7393199;19;19923;-69
2023/10/27 01:02:55;;;;;;;10.32;7.13;;;;;;;10.20;100.00;99481.44;7393665;19;19947;-69
2023/10/27 01:05:24;;;;;;;12.82;7.43;;;;;;;10.19;100.00;99487.84;7395298;19;19926;-68
2023/10/27 01:07:53;;;;;;;14.32;7.00;;;;;;;10.19;100.00;99485.97;7394829;19;19938;-69
2023/10/27 01:10:22;;;;;;;12.43;6.57;;;;;;;10.19;100.00;99487.84;7396287;19;19922;-69
2023/10/27 01:12:53;;;;;;;12.52;7.03;;;;;;;10.18;100.00;99486.22;7390154;19;19922;-69
2023/10/27 01:15:22;;;;;;;11.20;7.50;;;;;;;10.17;100.00;99492.63;7394304;19;19969;-69
2023/10/27 01:17:50;;;;;;;13.10;7.82;;;;;;;10.18;100.00;99487.00;7392211;19;19926;-69
2023/10/27 01:20:19;;;;;;;9.43;7.15;;;;;;;10.18;100.00;99484.31;7395095;19;19951;-69
2023/10/27 01:22:51;;;;;;;11.05;6.47;;;;;;;10.17;100.00;99473.78;7393706;19;19918;-69
2023/10/27 01:25:19;;;;;;;;;;;;;;;10.06;100.00;99477.88;7397249;19;19918;-68
2023/10/27 01:27:48;;;;;;;9.80;6.68;;;;;;;10.15;100.00;99475.81;7394002;19;20551;-69
2023/10/27 01:30:17;;;;;;;10.52;6.47;;;;;;;10.16;100.00;99470.25;7394745;19;19926;-69
2023/10/27 01:32:46;;;;;;;10.23;6.70;;;;;;;10.17;100.00;99469.25;7398488;19;19922;-69
2023/10/27 01:35:15;;;;;;;11.57;6.75;;;;;;;10.18;100.00;99475.44;7396651;19;19914;-69
2023/10/27 01:37:43;;;;;;;12.38;6.95;;;;;;;10.18;100.00;99478.13;7397500;19;20380;-69
2023/10/27 01:40:15;;;;;;;14.10;8.27;;;;;;;10.17;100.00;99484.56;7399598;19;19945;-69
2023/10/27 01:42:43;;;;;;;14.35;8.55;;;;;;;10.16;100.00;99475.66;7399528;19;19915;-69
2023/10/27 01:45:13;;;;;;;12.10;7.38;;;;;;;10.17;100.00;99477.31;7400181;19;19923;-70
2023/10/27 01:47:42;;;;;;;13.50;7.35;;;;;;;10.19;100.00;99472.53;7398921;19;19918;-69
2023/10/27 01:50:11;;;;;;;13.65;8.20;;;;;;;10.19;100.00;99471.69;7396656;19;19942;-69
2023/10/27 01:52:41;;;;;;;15.02;8.88;;;;;;;10.19;100.00;99479.78;7399097;19;19926;-69
2023/10/27 01:55:10;;;;;;;11.65;7.85;;;;;;;10.19;100.00;99472.53;7400547;19;20383;-69
2023/10/27 01:57:41;;;;;;;14.48;8.35;;;;;;;10.18;100.00;99476.25;7399101;19;19930;-69
2023/10/27 02:00:11;;;;;;;12.63;8.07;;;;;;;10.19;100.00;99471.69;7398891;19;19947;-69
2023/10/27 02:02:40;;;;;;;12.73;8.80;;;;;;;10.18;100.00;99475.44;7398428;19;19951;-70
2023/10/27 02:05:10;;;;;;;19.00;8.55;;;;;;;10.17;100.00;99471.94;7397199;19;19950;-70
2023/10/27 02:07:39;;;;;;;14.85;8.75;;;;;;;10.17;100.00;99463.84;7399124;19;19917;-70
2023/10/27 02:10:08;;;;;;;14.27;7.53;;;;;;;10.17;100.00;99463.84;7399368;19;19939;-70
2023/10/27 02:12:37;;;;;;;12.82;7.90;;;;;;;10.16;100.00;99464.06;7398357;19;19957;-70
2023/10/27 02:15:09;;;;;;;12.90;7.85;;;;;;;10.17;100.00;99460.34;7398589;19;19929;-71
2023/10/27 02:17:39;;;;;;;13.95;8.80;;;;;;;10.17;100.00;99453.09;7400746;19;19946;-70
2023/10/27 02:20:09;;;;;;;12.75;7.57;;;;;;;10.20;100.00;99458.03;7397586;19;19953;-70
2023/10/27 02:22:38;;;;;;;13.30;7.78;;;;;;;10.18;100.00;99457.41;7396247;19;20256;-70
2023/10/27 02:25:07;;;;;;;11.15;7.20;;;;;;;10.20;100.00;99459.91;7399484;19;19935;-70
2023/10/27 02:27:38;;;;;;;15.27;8.38;;;;;;;10.16;100.00;99459.50;7398949;19;19927;-70
2023/10/27 02:30:10;;;;;;;16.40;8.07;;;;;;;10.16;100.00;99458.66;7396446;19;19974;-70
2023/10/27 02:32:39;;;;;;;10.68;7.35;;;;;;;10.17;100.00;99461.16;7396312;19;19926;-70
2023/10/27 02:35:09;;;;;;;13.93;8.25;;;;;;;10.18;100.00;99464.69;7397007;19;19910;-70
2023/10/27 02:37:37;;;;;;;12.25;7.97;;;;;;;10.18;100.00;99453.91;7397668;19;19927;-70
2023/10/27 02:40:07;;;;;;;14.60;7.80;;;;;;;10.18;100.00;99454.72;7398012;19;19914;-70
2023/10/27 02:42:35;;;;;;;11.73;7.72;;;;;;;10.19;100.00;99461.75;7395638;19;19926;-70
2023/10/27 02:45:04;;;;;;;12.85;8.13;;;;;;;10.18;100.00;99464.69;7395749;19;19957;-71
2023/10/27 02:47:35;;;;;;;14.25;7.95;;;;;;;10.19;100.00;99460.94;7395383;19;19955;-70
2023/10/27 02:50:04;;;;;;;16.55;8.68;;;;;;;10.19;100.00;99460.94;7400103;19;19923;-70
2023/10/27 02:52:33;;;;;;;12.23;8.07;;;;;;;10.18;100.00;99459.31;7398029;19;19926;-71
2023/10/27 02:55:02;;;;;;;12.38;8.40;;;;;;;10.17;100.00;99453.09;7400097;19;19918;-70
2023/10/27 02:57:30;;;;;;;13.27;7.57;;;;;;;10.18;100.00;99462.00;7398890;19;20606;-70
2023/10/27 02:59:59;;;;;;;13.95;7.90;;;;;;;10.15;100.00;99460.53;7397962;19;19948;-70
2023/10/27 03:02:27;;;;;;;10.75;7.30;;;;;;;10.14;100.00;99458.03;7395270;19;19927;-70
2023/10/27 03:05:00;;;;;;;11.93;7.20;;;;;;;10.13;100.00;99456.38;7398496;19;20250;-70
2023/10/27 03:07:28;;;;;;;14.30;8.63;;;;;;;10.15;100.00;99456.97;7393396;19;19926;-70
2023/10/27 03:09:57;;;;;;;10.18;6.93;;;;;;;10.16;100.00;99458.66;7397770;19;19922;-70
2023/10/27 03:12:25;;;;;;;10.48;6.82;;;;;;;10.15;100.00;99454.28;7397013;19;19922;-70
2023/10/27 03:14:54;;;;;;;10.32;7.10;;;;;;;10.16;100.00;99464.06;7396943;19;19919;-70
2023/10/27 03:17:24;;;;;;;11.85;7.30;;;;;;;10.17;100.00;99460.34;7396966;19;19930;-70
2023/10/27 03:19:54;;;;;;;10.68;7.55;;;;;;;10.15;100.00;99454.28;7394808;19;19922;-70
2023/10/27 03:22:25;;;;;;;10.95;6.70;;;;;;;10.15;100.00;99459.66;7396563;19;19923;-70
2023/10/27 03:24:54;;;;;;;9.85;7.40;;;;;;;10.15;100.00;99459.66;7398087;19;19923;-70
2023/10/27 03:27:24;;;;;;;10.55;7.22;;;;;;;10.14;100.00;99452.66;7395731;19;19922;-70
2023/10/27 03:29:53;;;;;;;10.88;6.78;;;;;;;10.14;100.00;99456.13;7395496;19;19918;-70
2023/10/27 03:32:22;;;;;;;10.98;6.97;;;;;;;10.16;100.00;99455.97;7394191;19;19926;-70
2023/10/27 03:34:50;;;;;;;12.10;7.03;;;;;;;10.16;100.00;99454.13;7395682;19;19926;-70
2023/10/27 03:37:19;;;;;;;11.60;7.22;;;;;;;10.14;100.00;99458.84;7398653;19;19915;-70
2023/10/27 03:39:51;;;;;;;10.23;7.32;;;;;;;10.14;100.00;99453.44;7394457;19;20291;-70
2023/10/27 03:42:19;;;;;;;11.07;6.88;;;;;;;10.13;100.00;99451.00;7397342;19;19926;-70
2023/10/27 03:44:48;;;;;;;13.00;7.60;;;;;;;10.13;100.00;99456.38;7395043;19;19926;-70
2023/10/27 03:47:17;;;;;;;10.90;7.55;;;;;;;10.14;100.00;99458.03;7395343;19;19955;-70
2023/10/27 03:49:45;;;;;;;11.27;6.90;;;;;;;10.15;100.00;99455.16;7395854;19;19953;-70
2023/10/27 03:52:14;;;;;;;10.60;7.13;;;;;;;10.15;100.00;99456.97;7395180;19;19955;-70
2023/10/27 03:54:43;;;;;;;11.32;7.47;;;;;;;10.16;100.00;99450.59;7396935;19;19922;-70
2023/10/27 03:57:14;;;;;;;12.07;7.30;;;;;;;10.16;100.00;99454.13;7396936;19;19947;-70
2023/10/27 03:59:43;;;;;;;12.45;7.40;;;;;;;10.14;100.00;99449.97;7395636;19;19952;-71
2023/10/27 04:02:11;;;;;;;11.88;7.45;;;;;;;10.15;100.00;99448.91;7395453;19;19943;-70
2023/10/27 04:04:40;;;;;;;15.15;7.65;;;;;;;10.15;100.00;99443.53;7393049;19;19948;-70
2023/10/27 04:07:08;;;;;;;10.48;6.88;;;;;;;10.14;100.00;99437.31;7396521;19;19921;-70
2023/10/27 04:09:37;;;;;;;12.25;6.90;;;;;;;10.14;100.00;99442.69;7395865;19;19930;-71
2023/10/27 04:12:06;;;;;;;11.15;6.78;;;;;;;10.16;100.00;99445.22;7397007;19;20290;-69
2023/10/27 04:14:38;;;;;;;10.18;6.28;;;;;;;10.15;100.00;99435.44;7396413;19;19948;-69
2023/10/27 04:17:09;;;;;;;10.75;7.00;;;;;;;10.13;100.00;99435.69;7396762;19;19915;-68
2023/10/27 04:19:38;;;;;;;12.13;7.82;;;;;;;10.13;100.00;99438.38;7395102;19;19922;-70
2023/10/27 04:22:07;;;;;;;11.30;6.75;;;;;;;10.12;100.00;99435.88;7395483;19;19954;-69
2023/10/27 04:24:35;;;;;;;11.60;7.07;;;;;;;10.12;100.00;99425.09;7396951;19;19918;-70
2023/10/27 04:27:04;;;;;;;9.70;6.22;;;;;;;10.10;100.00;99427.16;7391120;19;19948;-69
2023/10/27 04:29:33;;;;;;;11.00;6.93;;;;;;;10.10;100.00;99436.06;7389391;19;19986;-70
2023/10/27 04:32:04;;;;;;;10.18;6.88;;;;;;;10.10;100.00;99421.78;7373904;19;21110;-69
2023/10/27 04:34:32;;;;;;;10.75;6.45;;;;;;;10.11;100.00;99423.44;7391986;19;19918;-70
2023/10/27 04:37:01;;;;;;;9.43;5.97;;;;;;;10.09;100.00;99418.28;7395294;19;20438;-70
2023/10/27 04:39:29;;;;;;;11.13;6.63;;;;;;;10.13;100.00;99418.69;7395829;19;19918;-70
2023/10/27 04:41:58;;;;;;;11.82;6.60;;;;;;;10.12;100.00;99419.72;7395271;19;19978;-70
2023/10/27 04:44:27;;;;;;;10.52;6.15;;;;;;;10.11;100.00;99426.97;7394011;19;19925;-70
2023/10/27 04:46:55;;;;;;;14.45;6.75;;;;;;;10.09;100.00;99422.84;7388318;19;20663;-70
2023/10/27 04:49:28;;;;;;;9.82;6.63;;;;;;;10.08;100.00;99423.88;7395430;19;19935;-69
2023/10/27 04:51:57;;;;;;;9.80;6.15;;;;;;;10.09;100.00;99422.84;7395266;19;19954;-69
2023/10/27 04:54:25;;;;;;;9.02;6.13;;;;;;;10.09;100.00;99417.47;7393975;19;19943;-69
2023/10/27 04:56:55;;;;;;;10.52;6.20;;;;;;;10.09;100.00;99417.47;7391562;19;19923;-69
2023/10/27 04:59:23;;;;;;;11.15;6.65;;;;;;;10.08;100.00;99415.81;7393704;19;19922;-70
2023/10/27 05:01:52;;;;;;;10.20;5.95;;;;;;;10.08;100.00;99413.94;7387035;19;20287;-71
2023/10/27 05:04:20;;;;;;;10.73;6.07;;;;;;;10.08;100.00;99411.25;7390294;19;19951;-71
2023/10/27 05:06:51;;;;;;;15.45;6.65;;;;;;;10.08;100.00;99405.03;7392981;19;19926;-71
2023/10/27 05:09:21;;;;;;;8.45;5.80;;;;;;;10.07;100.00;99408.75;7392989;19;20479;-71
2023/10/27 05:11:50;;;;;;;8.88;5.57;;;;;;;10.05;100.00;99406.31;7385105;19;20397;-71
2023/10/27 05:14:18;;;;;;;11.90;6.53;;;;;;;10.05;100.00;99400.09;7393004;19;19918;-71
2023/10/27 05:16:47;;;;;;;9.02;6.18;;;;;;;10.03;100.00;99402.97;7392115;19;19937;-71
2023/10/27 05:19:16;;;;;;;8.30;5.50;;;;;;;10.05;100.00;99405.47;7390530;19;20270;-71
2023/10/27 05:21:45;;;;;;;10.18;5.88;;;;;;;10.04;100.00;99404.63;7386273;19;19926;-71
2023/10/27 05:24:16;;;;;;;11.27;5.82;;;;;;;10.03;100.00;99403.81;7390559;19;19968;-71
2023/10/27 05:26:45;;;;;;;7.10;4.85;;;;;;;10.01;100.00;99408.56;7391443;19;19926;-70
2023/10/27 05:29:13;;;;;;;8.77;5.53;;;;;;;10.02;100.00;99404.84;7394445;19;19918;-70
2023/10/27 05:31:42;;;;;;;10.52;5.85;;;;;;;10.03;100.00;99409.19;7389807;19;19922;-71
2023/10/27 05:34:12;;;;;;;9.93;5.80;;;;;;;10.03;100.00;99405.66;7391736;19;19951;-71
2023/10/27 05:36:40;;;;;;;12.80;6.40;;;;;;;10.04;100.00;99401.94;7394104;19;20396;-69
2023/10/27 05:39:11;;;;;;;8.15;5.43;;;;;;;10.03;100.00;99402.97;7390055;19;19923;-69
2023/10/27 05:41:42;;;;;;;7.38;5.10;;;;;;;10.03;100.00;99400.28;7391973;19;19943;-69
2023/10/27 05:44:10;;;;;;;8.88;5.80;;;;;;;10.03;100.00;99397.59;7385508;19;19914;-69
2023/10/27 05:46:39;;;;;;;6.47;4.47;;;;;;;10.04;100.00;99401.94;7392576;19;19930;-69
2023/10/27 05:49:07;;;;;;;7.68;5.32;;;;;;;10.02;100.00;99399.47;7392992;19;19915;-70
2023/10/27 05:51:37;;;;;;;7.32;4.75;;;;;;;10.02;100.00;99396.75;7390516;19;19948;-69
2023/10/27 05:54:06;;;;;;;6.93;5.00;;;;;;;10.01;100.00;99400.47;7388619;19;20575;-70
2023/10/27 05:56:35;;;;;;;8.45;5.63;;;;;;;10.00;100.00;99404.22;7392446;19;20337;-69
2023/10/27 05:59:07;;;;;;;8.88;5.72;;;;;;;10.01;100.00;99399.66;7388245;19;20285;-69
2023/10/27 06:01:35;;;;;;;8.50;5.25;;;;;;;10.01;100.00;99400.47;7391850;19;19923;-70
2023/10/27 06:04:04;;;;;;;7.75;5.47;;;;;;;10.01;100.00;99399.66;7386556;19;19926;-69
2023/10/27 06:06:33;;;;;;;9.13;5.45;;;;;;;10.00;100.00;99398.03;7391947;19;19947;-70
2023/10/27 06:09:01;;;;;;;7.50;5.30;;;;;;;10.00;100.00;99392.66;7391625;19;19918;-69
2023/10/27 06:11:30;;;;;;;10.07;5.70;;;;;;;10.01;100.00;99391.59;7393100;19;19922;-69
2023/10/27 06:13:59;;;;;;;8.48;5.22;;;;;;;10.00;100.00;99393.47;7388291;19;19951;-70
2023/10/27 06:16:30;;;;;;;9.05;5.80;;;;;;;9.99;100.00;99399.06;7395729;19;19953;-69
2023/10/27 06:19:00;;;;;;;7.65;5.38;;;;;;;9.99;100.00;99399.88;7397558;19;20410;-69
2023/10/27 06:21:28;;;;;;;9.48;6.00;;;;;;;10.01;100.00;99405.03;7398559;19;19943;-70
2023/10/27 06:23:57;;;;;;;8.15;5.55;;;;;;;9.99;100.00;99402.56;7395603;19;20258;-69
2023/10/27 06:26:25;;;;;;;8.85;5.93;;;;;;;10.00;100.00;99409.63;7399879;19;19922;-69
2023/10/27 06:28:54;;;;;;;7.32;5.38;;;;;;;10.01;100.00;99407.72;7390491;19;20732;-70
2023/10/27 06:31:22;;;;;;;6.88;5.10;;;;;;;10.02;100.00;99406.69;7377923;19;19935;-70
2023/10/27 06:33:54;;;;;;;9.00;5.97;;;;;;;10.03;100.00;99408.34;7365954;19;19995;-71
2023/10/27 06:36:22;;;;;;;8.27;5.55;;;;;;;10.02;100.00;99410.22;7392133;19;19955;-70
2023/10/27 06:38:51;;;;;;;8.45;5.50;;;;;;;10.03;100.00;99411.03;7397242;19;20373;-70
2023/10/27 06:41:19;;;;;;;8.07;5.88;;;;;;;10.03;100.00;99405.66;7393808;19;19935;-69
2023/10/27 06:43:48;;;;;;;7.25;5.28;;;;;;;10.03;100.00;99408.34;7399455;19;19922;-70
2023/10/27 06:46:17;;;;;;;7.75;5.47;;;;;;;10.03;100.00;99408.34;7398469;19;19955;-70
2023/10/27 06:48:45;;;;;;;6.75;4.57;;;;;;;10.03;100.00;99416.44;7399072;19;20318;-70
2023/10/27 06:51:16;;;;;;;7.57;4.93;;;;;;;10.03;100.00;99414.56;7398963;19;19930;-70
2023/10/27 06:53:45;;;;;;;6.78;4.93;;;;;;;10.03;100.00;99409.19;7399778;19;20345;-70
2023/10/27 06:56:13;;;;;;;6.93;4.53;;;;;;;10.05;100.00;99417.06;7397831;19;19936;-70
2023/10/27 06:58:42;;;;;;;7.97;4.65;;;;;;;10.07;100.00;99414.97;7397896;19;19979;-70
2023/10/27 07:01:11;;;;;;;9.18;4.95;;;;;;;10.09;100.00;99414.78;7400429;19;19918;-70
2023/10/27 07:03:40;;;;;;;6.68;4.38;;;;;;;10.10;100.00;99408.34;7396545;19;19919;-70
2023/10/27 07:06:10;;;;;;;5.72;4.32;;;;;;;10.09;100.00;99412.09;7397386;19;19956;-71
2023/10/27 07:08:41;;;;;;;8.35;5.22;;;;;;;10.10;100.00;99413.72;7398008;19;19949;-70
2023/10/27 07:11:10;;;;;;;6.97;4.75;;;;;;;10.09;100.00;99415.59;7397808;19;19930;-70
2023/10/27 07:13:39;;;;;;;6.43;4.03;;;;;;;10.10;100.00;99419.94;7395531;19;19919;-70
2023/10/27 07:16:08;;;;;;;6.20;3.97;;;;;;;10.10;100.00;99419.94;7398194;19;19925;-70
2023/10/27 07:18:37;;;;;;;7.15;3.70;;;;;;;10.08;100.00;99415.81;7397772;19;20752;-70
2023/10/27 07:21:09;;;;;;;5.97;4.00;;;;;;;10.09;100.00;99422.84;7397721;19;19947;-70
2023/10/27 07:23:40;;;;;;;5.28;3.92;;;;;;;10.08;100.00;99424.72;7396701;19;20353;-71
2023/10/27 07:26:17;;;;;;;5.50;3.70;;;;;;;10.08;100.00;99429.25;7399030;19;19922;-70
2023/10/27 07:28:46;;;;;;;4.93;3.65;;;;;;;10.10;100.00;99433.38;7392300;19;19933;-70
2023/10/27 07:31:15;;;;;;;5.72;3.47;;;;;;;10.11;100.00;99426.13;7398344;19;19922;-70
2023/10/27 07:33:43;;;;;;;5.05;3.30;;;;;;;10.11;100.00;99424.28;7394784;19;20318;-71
2023/10/27 07:36:12;;;;;;;4.60;3.65;;;;;;;10.13;100.00;99430.28;7394762;19;19947;-70
2023/10/27 07:38:43;;;;;;;4.90;3.70;;;;;;;10.14;100.00;99423.06;7396862;19;19922;-70
2023/10/27 07:41:12;;;;;;;4.35;3.13;;;;;;;10.16;100.00;99427.22;7397928;19;19950;-70
2023/10/27 07:43:40;;;;;;;4.15;2.92;;;;;;;10.17;100.00;99426.19;7397414;19;20400;-70
2023/10/27 07:46:09;;;;;;;6.18;4.15;;;;;;;10.18;100.00;99422.44;7397767;19;20013;-70
2023/10/27 07:48:38;;;;;;;5.88;3.83;;;;;;;10.20;100.00;99423.06;7397012;19;20315;-71
2023/10/27 07:51:07;;;;;;;4.05;2.83;;;;;;;10.21;100.00;99419.34;7397257;19;19914;-71
2023/10/27 07:53:36;;;;;;;3.72;3.00;;;;;;;10.25;100.00;99433.19;7397962;19;20337;-71
2023/10/27 07:56:08;;;;;;;4.22;2.92;;;;;;;10.25;100.00;99425.94;7393999;19;19966;-70
2023/10/27 07:58:36;;;;;;;4.55;3.33;;;;;;;10.25;100.00;99423.25;7397274;19;20336;-70
2023/10/27 08:01:06;;;;;;;4.80;2.92;;;;;;;10.27;100.00;99431.94;7390273;19;20563;-70
2023/10/27 08:03:36;;;;;;;4.70;3.30;;;;;;;10.28;100.00;99428.22;7396032;19;19922;-70
2023/10/27 08:06:08;;;;;;;4.57;3.03;;;;;;;10.29;100.00;99424.50;7390753;19;19929;-71
2023/10/27 08:08:37;;;;;;;3.78;2.97;;;;;;;10.31;100.00;99427.78;7381465;19;19948;-71
2023/10/27 08:11:09;;;;;;;4.32;3.05;;;;;;;10.31;100.00;99427.78;7391363;19;19931;-71
2023/10/27 08:13:37;;;;;;;5.97;3.30;;;;;;;10.32;100.00;99432.13;7389140;19;20258;-71
2023/10/27 08:16:07;;;;;;;4.28;2.80;;;;;;;10.35;100.00;99417.44;7377297;19;19969;-72
2023/10/27 08:18:36;;;;;;;3.22;2.55;;;;;;;10.36;100.00;99421.78;7389190;19;19923;-71
2023/10/27 08:21:05;;;;;;;3.38;2.60;;;;;;;10.38;100.00;99431.31;7372533;19;21151;-73
2023/10/27 08:23:34;;;;;;;4.63;2.40;;;;;;;10.38;100.00;99427.78;7381920;19;19965;-72
2023/10/27 08:26:03;;;;;;;3.08;2.38;;;;;;;10.39;100.00;99429.44;7374109;19;19965;-71
2023/10/27 08:28:36;;;;;;;3.75;2.80;;;;;;;10.41;100.00;99435.44;7378488;19;20274;-72
2023/10/27 08:31:05;;;;;;;2.97;2.15;;;;;;;10.40;100.00;99433.78;7390353;19;19943;-72
2023/10/27 08:33:34;;;;;;;3.30;2.20;;;;;;;10.41;100.00;99433.56;7377725;19;21793;-72
2023/10/27 08:36:04;;;;;;;3.17;2.30;;;;;;;10.43;100.00;99433.38;7385598;19;19919;-73
2023/10/27 08:38:33;;;;;;;2.95;2.30;;;;;;;10.45;100.00;99437.50;7393684;19;19926;-72
2023/10/27 08:41:02;;;;;;;3.28;2.28;;;;;;;10.47;100.00;99434.59;7393956;19;19926;-72
2023/10/27 08:43:31;;;;;;;3.13;2.05;;;;;;;10.48;100.00;99430.88;7392026;19;19918;-72
2023/10/27 08:46:06;;;;;;;5.10;2.55;;;;;;;10.53;100.00;99428.34;7394304;19;19939;-72
2023/10/27 08:48:35;;;;;;;3.00;2.35;;;;;;;10.56;100.00;99433.34;7389330;19;19930;-72
2023/10/27 08:51:06;;;;;;;3.28;2.20;;;;;;;10.60;100.00;99431.03;7385704;19;19919;-72
2023/10/27 08:53:34;;;;;;;3.20;1.95;;;;;;;10.63;100.00;99426.06;7390360;19;20014;-72
2023/10/27 08:56:03;;;;;;;2.97;2.15;;;;;;;10.67;100.00;99435.34;7394745;19;20400;-71
2023/10/27 08:58:32;;;;;;;4.78;2.10;;;;;;;10.68;100.00;99431.63;7376735;19;19934;-71
2023/10/27 09:01:04;;;;;;;3.40;2.17;;;;;;;10.70;100.00;99428.72;7384181;19;19927;-71
2023/10/27 09:03:32;;;;;;;5.95;2.65;;;;;;;10.71;100.00;99433.88;7388257;19;19918;-72
2023/10/27 09:06:02;;;;;;;3.08;1.98;;;;;;;10.74;100.00;99433.44;7385068;19;19925;-72
2023/10/27 09:08:31;;;;;;;3.92;2.35;;;;;;;10.76;100.00;99434.09;7381901;19;19922;-72
2023/10/27 09:11:00;;;;;;;3.38;1.80;;;;;;;10.77;100.00;99435.75;7367901;19;24485;-72
2023/10/27 09:13:28;;;;;;;2.85;2.10;;;;;;;10.79;100.00;99424.72;7368338;19;19923;-71
2023/10/27 09:15:57;;;;;;;3.00;2.17;;;;;;;10.81;100.00;99428.88;7368602;19;19963;-71
2023/10/27 09:18:38;;;;;;;3.55;2.45;;;;;;;10.81;100.00;99428.06;7374342;19;19929;-71
2023/10/27 09:21:07;;;;;;;2.67;1.80;;;;;;;10.87;100.00;99428.00;7391346;19;20273;-71
2023/10/27 09:23:47;;;;;;;2.53;1.83;;;;;;;10.88;99.91;99428.84;7393500;19;19919;-72
2023/10/27 09:26:16;;;;;;;3.78;1.90;;;;;;;10.93;100.00;99420.94;7393718;19;19936;-73
2023/10/27 09:28:45;;;;;;;2.28;1.77;;;;;;;10.97;99.84;99427.56;7389370;19;19978;-71
2023/10/27 09:31:13;;;;;;;2.95;2.10;;;;;;;11.00;99.55;99434.41;7390438;19;19955;-73
2023/10/27 09:33:44;;;;;;;3.85;2.10;;;;;;;11.01;99.57;99434.16;7391851;19;19942;-73
2023/10/27 09:36:13;;;;;;;3.00;2.20;;;;;;;11.05;99.40;99434.56;7385643;19;19918;-73
2023/10/27 09:38:42;;;;;;;3.60;2.60;;;;;;;11.07;99.19;99432.50;7365834;19;19922;-73
2023/10/27 09:41:13;;;;;;;3.15;2.20;;;;;;;11.10;99.04;99432.06;7385006;19;20018;-73
2023/10/27 09:43:44;;;;;;;5.00;2.20;;;;;;;11.13;99.40;99426.25;7369730;19;19949;-73
2023/10/27 09:46:15;;;;;;;3.10;2.35;;;;;;;11.15;98.85;99429.53;7371339;19;19923;-71
2023/10/27 09:48:49;;;;;;;2.70;2.20;;;;;;;11.16;98.89;99428.50;7390569;19;19918;-72
2023/10/27 09:51:23;;;;;;;4.70;2.70;;;;;;;11.15;98.50;99424.16;7366451;19;19923;-72
2023/10/27 09:53:53;;;;;;;3.85;2.13;;;;;;;11.18;98.40;99437.19;7372353;19;20347;-71
2023/10/27 09:56:21;;;;;;;2.85;2.10;;;;;;;11.20;98.61;99440.50;7373767;19;19923;-71
2023/10/27 09:58:51;;;;;;;4.07;3.00;;;;;;;11.21;98.55;99432.22;7381134;19;19923;-72
2023/10/27 10:01:20;;;;;;;4.30;2.58;;;;;;;11.22;98.71;99428.47;7395410;19;19964;-70
2023/10/27 10:03:51;;;;;;;4.50;2.90;;;;;;;11.25;98.60;99430.75;7393858;19;19930;-71
2023/10/27 10:06:23;;;;;;;;;;;;;;;11.15;98.02;99426.84;7400087;19;20364;-71
2023/10/27 10:09:11;;;;;;;5.45;3.08;;;;;;;11.20;98.26;99433.25;7397450;19;19923;-71
2023/10/27 10:11:58;;;;;;;3.55;2.67;;;;;;;11.22;98.33;99427.63;7398471;19;19925;-71
2023/10/27 10:14:48;;;;;;;5.60;3.03;;;;;;;11.20;98.00;99430.56;7396295;19;19993;-72
2023/10/27 10:17:38;;;;;;;4.35;2.97;;;;;;;11.22;98.33;99436.53;7394194;19;19947;-72
2023/10/27 10:20:11;;;;;;;4.20;3.28;;;;;;;11.26;97.98;99437.75;7383808;19;20030;-71
2023/10/27 10:22:57;;;;;;;5.60;3.38;;;;;;;11.24;97.15;99425.56;7384207;19;19958;-70
2023/10/27 10:25:29;;;;;;;4.72;3.38;;;;;;;11.26;96.61;99426.19;7379412;19;19927;-70
2023/10/27 10:28:29;;;;;;;4.72;3.38;;;;;;;11.25;97.71;99425.34;7387269;19;19926;-70
2023/10/27 10:31:25;;;;;;;5.68;3.75;;;;;;;11.25;97.08;99419.13;7374932;19;19929;-70
2023/10/27 10:34:11;;;;;;;5.20;3.70;;;;;;;11.26;97.34;99423.47;7386587;19;19923;-72
2023/10/27 10:36:45;;;;;;;5.07;3.47;;;;;;;11.34;97.16;99424.06;7392275;19;19919;-72
2023/10/27 10:39:14;;;;;;;6.40;3.95;;;;;;;11.39;97.37;99423.38;7373383;19;20660;-71
2023/10/27 10:42:01;;;;;;;5.05;3.55;;;;;;;11.38;96.85;99414.50;7393951;19;19958;-71
2023/10/27 10:44:31;;;;;;;5.32;3.78;;;;;;;11.44;97.46;99415.47;7377812;19;19956;-71
2023/10/27 10:47:03;;;;;;;6.13;4.13;;;;;;;11.45;96.70;99419.81;7396753;19;19933;-71
2023/10/27 10:49:33;;;;;;;5.75;3.88;;;;;;;11.46;96.90;99421.47;7397150;19;20371;-71
2023/10/27 10:52:05;;;;;;;5.60;3.80;;;;;;;11.45;96.56;99416.28;7392130;19;19927;-70
2023/10/27 10:54:35;;;;;;;6.75;4.45;;;;;;;11.45;97.05;99421.69;7384521;19;19941;-70
2023/10/27 10:57:07;;;;;;;7.18;4.40;;;;;;;11.45;97.00;99419.00;7393834;19;20621;-70
2023/10/27 10:59:36;;;;;;;5.50;4.20;;;;;;;11.45;96.51;99416.28;7395037;19;19929;-69
2023/10/27 11:02:06;;;;;;;5.97;4.30;;;;;;;11.44;96.24;99418.16;7388322;19;19965;-70
2023/10/27 11:04:36;;;;;;;8.07;4.32;;;;;;;11.43;96.27;99416.53;7385499;19;20333;-69
2023/10/27 11:07:08;;;;;;;7.15;4.75;;;;;;;11.43;96.23;99421.09;7393998;19;19914;-70
2023/10/27 11:09:37;;;;;;;7.05;4.90;;;;;;;11.40;96.37;99425.03;7390490;19;19958;-69
2023/10/27 11:12:06;;;;;;;7.75;5.07;;;;;;;11.43;96.53;99421.94;7383086;19;20362;-69
2023/10/27 11:14:41;;;;;;;6.15;4.38;;;;;;;11.41;96.66;99421.31;7385973;19;19922;-69
2023/10/27 11:17:11;;;;;;;6.60;4.43;;;;;;;11.43;96.78;99419.22;7385801;19;20613;-69
2023/10/27 11:19:54;;;;;;;6.85;4.70;;;;;;;11.39;96.55;99418.81;7395202;19;19950;-69
2023/10/27 11:22:28;;;;;;;6.45;4.13;;;;;;;11.42;96.89;99417.56;7391614;19;19930;-70
2023/10/27 11:24:57;;;;;;;9.73;5.05;;;;;;;11.43;97.02;99416.53;7386927;19;19919;-69
2023/10/27 11:27:26;;;;;;;6.82;4.22;;;;;;;11.44;97.19;99418.16;7387488;19;19930;-69
2023/10/27 11:30:02;;;;;;;5.40;3.95;;;;;;;11.44;96.66;99411.94;7387510;19;19919;-69
2023/10/27 11:32:31;;;;;;;6.38;4.72;;;;;;;11.43;96.60;99421.09;7387509;19;19947;-69
2023/10/27 11:35:00;;;;;;;7.82;4.55;;;;;;;11.42;96.68;99414.03;7380342;19;20481;-70
2023/10/27 11:37:32;;;;;;;6.70;4.50;;;;;;;11.37;96.14;99406.59;7380334;19;19927;-70